CDT,Max TemperatureF,Mean TemperatureF,Min TemperatureF,Max Dew PointF,MeanDew PointF,Min DewpointF,Max Humidity, Mean Humidity, Min Humidity, Max Sea Level PressureIn, Mean Sea Level PressureIn, Min Sea Level PressureIn, Max VisibilityMiles, Mean VisibilityMiles, Min VisibilityMiles, Max Wind SpeedMPH, Mean Wind SpeedMPH, Max Gust SpeedMPH,PrecipitationIn, CloudCover, Events, WindDirDegrees
2012-10-1,81,68,54,56,51,45,93,62,30,29.94,29.88,29.83,10,10,9,29,13,35,0.00,3,,340
2012-10-2,75,66,56,49,47,43,77,55,33,30.01,29.95,29.90,10,10,7,16,7,20,0.00,2,,329
2012-10-3,80,65,50,54,50,46,89,63,36,29.97,29.93,29.88,10,10,10,18,9,24,0.00,0,,165
2012-10-4,70,64,58,56,50,44,80,68,56,30.16,30.09,29.95,10,10,10,22,10,26,0.00,5,,18
2012-10-5,59,53,46,46,43,35,71,63,55,30.25,30.16,30.13,10,10,7,21,14,26,0.01,7,Rain,30
2012-10-6,50,46,42,36,32,28,70,56,42,30.34,30.27,30.23,10,10,10,22,13,28,0.00,6,,38
2012-10-7,52,44,36,38,33,28,92,69,46,30.36,30.30,30.24,10,10,10,13,5,15,T,6,Rain,3
2012-10-8,65,48,31,38,35,29,96,65,34,30.24,30.15,30.01,10,9,2,18,9,24,0.00,2,,188
2012-10-9,77,62,46,55,49,38,86,66,46,30.05,29.91,29.82,10,10,10,25,13,30,0.00,3,,186
2012-10-10,68,59,50,48,39,32,72,51,29,30.24,30.15,30.06,10,10,10,22,12,28,0.00,6,,78
2012-10-11,81,70,59,66,57,44,87,71,55,30.13,30.07,29.99,10,10,5,24,10,30,T,7,Rain,174
2012-10-12,75,71,67,70,67,64,97,85,73,30.17,30.09,30.00,10,9,6,23,10,29,0.08,7,Rain-Thunderstorm,133
2012-10-13,75,68,60,70,66,58,93,71,48,29.99,29.82,29.69,10,7,0,39,16,48,2.56,7,Fog-Rain-Thunderstorm,200
2012-10-14,78,67,55,47,45,40,67,47,26,30.09,29.97,29.75,10,10,10,25,11,30,0.00,0,,313
2012-10-15,84,67,50,51,48,44,83,56,28,30.09,29.99,29.88,10,10,7,17,8,22,0.00,0,,205
2012-10-16,80,67,54,57,51,46,83,58,32,29.88,29.70,29.52,10,10,10,28,14,33,0.00,1,,175
2012-10-17,77,65,52,61,48,26,87,57,27,29.84,29.58,29.39,10,10,10,30,16,38,0.00,0,,306
2012-10-18,70,58,45,31,26,21,53,35,16,30.00,29.93,29.84,10,10,10,31,13,37,0.00,1,,306
2012-10-19,72,61,49,36,24,18,61,38,15,29.99,29.91,29.83,10,10,10,25,12,32,0.00,1,,300
2012-10-20,82,64,46,62,48,35,78,59,39,29.84,29.75,29.68,10,10,10,20,10,25,0.00,1,,167
2012-10-21,88,77,66,67,65,63,93,72,50,29.77,29.71,29.66,10,10,8,30,17,38,0.00,3,,172
2012-10-22,82,74,66,66,62,57,87,68,48,29.90,29.82,29.75,10,10,9,30,16,40,0.02,4,Rain,177
2012-10-23,84,75,66,67,66,63,93,74,55,29.89,29.81,29.74,10,10,10,28,17,35,0.00,5,,183
2012-10-24,74,70,65,66,65,62,93,81,68,29.89,29.80,29.69,10,10,8,29,17,37,0.00,6,,174
2012-10-25,71,58,44,62,46,34,81,66,50,30.22,29.95,29.69,10,10,7,33,20,41,T,4,Rain,348
2012-10-26,52,44,36,34,28,23,76,56,35,30.43,30.35,30.22,10,10,10,32,17,38,0.00,2,,11
2012-10-27,54,43,31,28,25,20,78,53,28,30.40,30.31,30.21,10,10,10,10,5,14,0.00,1,,12
2012-10-28,60,45,30,32,28,26,82,56,29,30.32,30.26,30.19,10,10,10,8,3,12,0.00,3,,101
2012-10-29,66,50,34,31,28,26,75,50,24,30.29,30.20,30.08,10,10,6,15,6,21,0.00,2,,177
2012-10-30,78,59,39,41,36,31,70,48,26,30.08,29.98,29.88,10,10,10,18,8,24,0.00,1,,196
2012-10-31,72,58,44,43,39,37,76,53,29,30.07,30.00,29.92,10,10,10,14,6,16,0.00,1,,347